createdAt,value
2022-08-20T00:01:59.661Z,10.35
2022-08-20T00:04:22.355Z,10.32
2022-08-20T00:06:45.497Z,10.50
2022-08-20T00:09:08.377Z,10.98
2022-08-20T00:11:33.647Z,10.90
2022-08-20T00:13:59.521Z,10.40
2022-08-20T00:16:24.157Z,11.25
2022-08-20T00:18:47.516Z,10.50
2022-08-20T00:21:18.813Z,11.10
2022-08-20T00:23:44.180Z,11.60
2022-08-20T00:26:08.180Z,11.27
2022-08-20T00:28:30.758Z,11.23
2022-08-20T00:30:53.635Z,10.60
2022-08-20T00:33:21.684Z,10.20
2022-08-20T00:35:48.706Z,10.55
2022-08-20T00:38:11.760Z,10.70
2022-08-20T00:40:48.342Z,10.85
2022-08-20T00:43:29.156Z,10.70
2022-08-20T00:45:55.658Z,10.80
2022-08-20T00:48:18.639Z,11.85
2022-08-20T00:50:41.253Z,12.02
2022-08-20T00:53:06.064Z,13.13
2022-08-20T00:55:31.720Z,12.90
2022-08-20T00:58:01.348Z,13.27
2022-08-20T01:00:32.413Z,13.23
2022-08-20T01:02:56.068Z,12.95
2022-08-20T01:05:19.249Z,13.73
2022-08-20T01:07:43.420Z,13.63
2022-08-20T01:10:19.357Z,14.15
2022-08-20T01:12:46.539Z,13.40
2022-08-20T01:15:13.692Z,13.20
2022-08-20T01:17:46.246Z,12.65
2022-08-20T01:20:24.415Z,12.17
2022-08-20T01:23:27.231Z,12.10
2022-08-20T01:25:53.309Z,11.43
2022-08-20T01:28:20.133Z,11.50
2022-08-20T01:30:43.363Z,11.38
2022-08-20T01:33:06.308Z,11.40
2022-08-20T01:35:28.992Z,11.48
2022-08-20T01:37:52.280Z,11.40
2022-08-20T01:40:23.675Z,10.52
2022-08-20T01:42:51.116Z,12.07
2022-08-20T01:45:22.695Z,11.80
2022-08-20T01:47:50.415Z,11.18
2022-08-20T01:50:21.007Z,10.73
2022-08-20T01:52:55.222Z,11.80
2022-08-20T01:55:18.116Z,11.75
2022-08-20T01:57:41.084Z,10.73
2022-08-20T02:00:09.080Z,10.80
2022-08-20T02:02:43.379Z,10.70
2022-08-20T02:05:06.479Z,10.30
2022-08-20T02:07:30.083Z,11.45
2022-08-20T02:09:52.905Z,11.37
2022-08-20T02:12:16.685Z,10.73
2022-08-20T02:14:44.522Z,10.65
2022-08-20T02:17:07.086Z,10.63
2022-08-20T02:19:54.330Z,11.40
2022-08-20T02:22:35.682Z,10.93
2022-08-20T02:25:00.124Z,10.82
2022-08-20T02:27:23.814Z,10.85
2022-08-20T02:29:46.889Z,11.07
2022-08-20T02:32:24.255Z,10.88
2022-08-20T02:34:52.386Z,10.23
2022-08-20T02:37:16.815Z,11.30
2022-08-20T02:39:39.370Z,11.18
2022-08-20T02:42:05.236Z,11.25
2022-08-20T02:44:27.844Z,12.00
2022-08-20T02:46:50.809Z,11.40
2022-08-20T02:49:13.555Z,11.60
2022-08-20T02:51:36.605Z,11.70
2022-08-20T02:53:59.310Z,11.00
2022-08-20T02:56:21.776Z,11.05
2022-08-20T02:58:45.451Z,11.20
2022-08-20T03:01:12.680Z,11.48
2022-08-20T03:03:35.469Z,10.80
2022-08-20T03:05:59.726Z,10.65
2022-08-20T03:08:23.161Z,11.50
2022-08-20T03:10:47.667Z,11.10
2022-08-20T03:13:13.789Z,10.95
2022-08-20T03:15:36.328Z,10.18
2022-08-20T03:17:59.388Z,10.80
2022-08-20T03:20:41.975Z,11.15
2022-08-20T03:23:04.775Z,10.27
2022-08-20T03:25:27.654Z,10.45
2022-08-20T03:27:54.538Z,11.93
2022-08-20T03:30:19.434Z,10.55
2022-08-20T03:32:42.142Z,10.90
2022-08-20T03:35:07.557Z,10.67
2022-08-20T03:37:34.908Z,12.32
2022-08-20T03:39:57.572Z,10.63
2022-08-20T03:42:20.224Z,10.38
2022-08-20T03:44:43.337Z,10.52
2022-08-20T03:47:07.972Z,11.03
2022-08-20T03:49:30.470Z,10.77
2022-08-20T03:51:57.516Z,10.35
2022-08-20T03:54:21.060Z,11.18
2022-08-20T03:56:43.857Z,10.70
2022-08-20T03:59:06.368Z,10.93
2022-08-20T04:01:44.605Z,10.18
2022-08-20T04:04:12.686Z,10.50
2022-08-20T04:06:35.448Z,10.18
2022-08-20T04:08:58.797Z,10.27
2022-08-20T04:11:21.850Z,10.30
2022-08-20T04:13:44.433Z,10.07
2022-08-20T04:16:11.749Z,10.90
2022-08-20T04:18:37.536Z,10.13
2022-08-20T04:21:00.065Z,10.60
2022-08-20T04:23:22.954Z,9.97
2022-08-20T04:25:46.425Z,10.18
2022-08-20T04:28:14.141Z,9.65
2022-08-20T04:30:37.114Z,9.77
2022-08-20T04:33:00.041Z,10.18
2022-08-20T04:35:24.681Z,9.77
2022-08-20T04:37:48.232Z,10.27
2022-08-20T04:40:33.689Z,10.40
2022-08-20T04:42:57.264Z,9.77
2022-08-20T04:45:20.093Z,9.82
2022-08-20T04:47:42.744Z,9.60
2022-08-20T04:50:09.315Z,9.40
2022-08-20T04:52:33.273Z,9.80
2022-08-20T04:54:56.620Z,9.57
2022-08-20T04:57:19.533Z,9.98
2022-08-20T04:59:42.162Z,9.87
2022-08-20T05:02:04.829Z,9.30
2022-08-20T05:04:27.614Z,9.77
2022-08-20T05:06:50.233Z,9.30
2022-08-20T05:09:12.968Z,10.02
2022-08-20T05:11:37.020Z,8.70
2022-08-20T05:13:59.695Z,9.02
2022-08-20T05:16:24.076Z,8.88
2022-08-20T05:18:50.551Z,8.50
2022-08-20T05:21:15.655Z,9.10
2022-08-20T05:23:42.942Z,8.53
2022-08-20T05:26:07.689Z,8.90
2022-08-20T05:28:32.773Z,9.45
2022-08-20T05:31:02.793Z,8.63
2022-08-20T05:33:25.708Z,9.57
2022-08-20T05:35:49.684Z,8.87
2022-08-20T05:38:14.611Z,9.15
2022-08-20T05:40:38.793Z,8.93
2022-08-20T05:43:02.650Z,8.70
2022-08-20T05:45:28.568Z,9.00
2022-08-20T05:47:56.449Z,9.17
2022-08-20T05:50:23.191Z,8.57
2022-08-20T05:52:46.137Z,9.18
2022-08-20T05:55:11.229Z,9.02
2022-08-20T05:57:34.516Z,9.75
2022-08-20T05:59:57.240Z,9.67
2022-08-20T06:02:38.716Z,9.48
2022-08-20T06:05:01.888Z,9.32
2022-08-20T06:07:24.696Z,9.20
2022-08-20T06:09:47.419Z,9.52
2022-08-20T06:12:10.105Z,9.33
2022-08-20T06:14:32.947Z,8.93
2022-08-20T06:16:57.628Z,8.90
2022-08-20T06:19:26.190Z,9.43
2022-08-20T06:21:49.181Z,9.60
2022-08-20T06:24:12.042Z,9.57
2022-08-20T06:26:35.247Z,9.98
2022-08-20T06:28:59.297Z,9.88
2022-08-20T06:31:22.091Z,10.45
2022-08-20T06:33:44.943Z,11.10
2022-08-20T06:36:08.156Z,10.37
2022-08-20T06:38:32.740Z,10.05
2022-08-20T06:40:55.326Z,9.93
2022-08-20T06:43:18.003Z,10.10
2022-08-20T06:45:40.761Z,9.88
2022-08-20T06:48:08.940Z,9.47
2022-08-20T06:50:43.125Z,9.73
2022-08-20T06:53:12.380Z,9.07
2022-08-20T06:55:37.460Z,9.35
2022-08-20T06:58:05.573Z,9.65
2022-08-20T07:00:29.677Z,9.40
2022-08-20T07:02:52.798Z,9.88
2022-08-20T07:05:16.642Z,9.57
2022-08-20T07:07:39.684Z,10.07
2022-08-20T07:10:09.864Z,9.73
2022-08-20T07:12:36.592Z,9.57
2022-08-20T07:14:59.309Z,9.63
2022-08-20T07:17:24.090Z,9.30
2022-08-20T07:19:46.993Z,9.43
2022-08-20T07:22:09.743Z,9.82
2022-08-20T07:24:32.605Z,8.63
2022-08-20T07:26:57.001Z,9.10
2022-08-20T07:29:21.672Z,7.75
2022-08-20T07:32:03.232Z,6.72
2022-08-20T07:34:25.901Z,5.75
2022-08-20T07:36:48.917Z,5.47
2022-08-20T07:39:11.827Z,6.53
2022-08-20T07:41:35.299Z,7.22
2022-08-20T07:43:57.949Z,7.07
2022-08-20T07:46:21.713Z,7.97
2022-08-20T07:48:47.032Z,7.57
2022-08-20T07:51:11.081Z,7.88
2022-08-20T07:53:36.140Z,7.97
2022-08-20T07:55:59.561Z,8.07
2022-08-20T07:58:33.171Z,8.73
2022-08-20T08:00:56.438Z,9.20
2022-08-20T08:03:21.404Z,9.65
2022-08-20T08:06:02.727Z,8.63
2022-08-20T08:08:28.774Z,9.63
2022-08-20T08:10:55.809Z,10.45
2022-08-20T08:13:26.816Z,10.27
2022-08-20T08:15:50.446Z,9.82
2022-08-20T08:18:21.739Z,9.40
2022-08-20T08:20:46.590Z,9.23
2022-08-20T08:23:24.806Z,9.43
2022-08-20T08:25:54.589Z,9.23
2022-08-20T08:28:18.635Z,9.50
2022-08-20T08:30:42.664Z,9.70
2022-08-20T08:33:23.465Z,10.20
2022-08-20T08:35:46.589Z,10.02
2022-08-20T08:38:09.393Z,10.63
2022-08-20T08:40:37.130Z,10.40
2022-08-20T08:43:04.119Z,10.13
2022-08-20T08:45:38.198Z,10.48
2022-08-20T08:48:02.610Z,10.32
2022-08-20T08:50:52.875Z,9.70
2022-08-20T08:53:27.782Z,9.55
2022-08-20T08:55:50.406Z,9.70
2022-08-20T08:58:17.085Z,9.55
2022-08-20T09:00:50.776Z,9.25
2022-08-20T09:03:29.819Z,9.87
2022-08-20T09:05:55.049Z,9.38
2022-08-20T09:08:25.789Z,9.05
2022-08-20T09:10:48.356Z,8.43
2022-08-20T09:13:11.092Z,8.23
2022-08-20T09:15:34.070Z,6.90
2022-08-20T09:17:56.814Z,6.35
2022-08-20T09:20:23.061Z,6.80
2022-08-20T09:22:50.228Z,7.45
2022-08-20T09:25:14.864Z,5.45
2022-08-20T09:27:37.421Z,5.57
2022-08-20T09:30:03.505Z,5.03
2022-08-20T09:32:26.274Z,5.18
2022-08-20T09:34:52.611Z,5.85
2022-08-20T09:37:16.008Z,6.18
2022-08-20T09:39:38.817Z,7.00
2022-08-20T09:42:38.938Z,6.97
2022-08-20T09:45:04.195Z,7.03
2022-08-20T09:47:33.305Z,6.53
2022-08-20T09:49:56.034Z,6.68
2022-08-20T09:52:25.601Z,7.27
2022-08-20T09:54:48.818Z,6.85
2022-08-20T09:57:13.672Z,6.82
2022-08-20T09:59:37.035Z,7.25
2022-08-20T10:01:59.753Z,7.50
2022-08-20T10:04:22.536Z,7.03
2022-08-20T10:06:45.488Z,6.55
2022-08-20T10:09:08.165Z,6.53
2022-08-20T10:11:30.816Z,6.35
2022-08-20T10:13:53.465Z,6.57
2022-08-20T10:16:16.278Z,6.20
2022-08-20T10:18:39.063Z,5.55
2022-08-20T10:21:01.922Z,5.97
2022-08-20T10:23:24.592Z,5.57
2022-08-20T10:25:47.269Z,5.57
2022-08-20T10:28:10.703Z,4.97
2022-08-20T10:30:34.475Z,5.07
2022-08-20T10:32:57.173Z,5.30
2022-08-20T10:35:19.910Z,5.30
2022-08-20T10:37:42.494Z,5.30
2022-08-20T10:40:06.140Z,5.10
2022-08-20T10:42:29.400Z,4.80
2022-08-20T10:44:52.313Z,4.72
2022-08-20T10:47:18.215Z,4.25
2022-08-20T10:49:41.335Z,5.03
2022-08-20T10:52:06.106Z,4.40
2022-08-20T10:54:28.737Z,4.60
2022-08-20T10:56:51.315Z,4.43
2022-08-20T10:59:13.850Z,4.70
2022-08-20T11:01:45.284Z,4.38
2022-08-20T11:04:07.863Z,3.73
2022-08-20T11:06:30.475Z,3.70
2022-08-20T11:08:53.067Z,4.13
2022-08-20T11:11:15.641Z,4.10
2022-08-20T11:13:38.375Z,4.00
2022-08-20T11:16:02.843Z,4.00
2022-08-20T11:18:25.998Z,3.75
2022-08-20T11:20:48.709Z,3.95
2022-08-20T11:23:11.422Z,4.22
2022-08-20T11:25:34.149Z,4.22
2022-08-20T11:27:58.399Z,4.27
2022-08-20T11:30:28.666Z,4.40
2022-08-20T11:32:51.630Z,4.28
2022-08-20T11:35:40.941Z,3.80
2022-08-20T11:37:58.960Z,4.18
2022-08-20T11:40:22.628Z,4.07
2022-08-20T11:43:11.114Z,4.53
2022-08-20T11:45:27.881Z,4.32
2022-08-20T11:47:50.719Z,4.78
2022-08-20T11:50:19.576Z,4.15
2022-08-20T11:52:43.260Z,4.13
2022-08-20T11:55:08.362Z,4.05
2022-08-20T11:57:32.720Z,4.32
2022-08-20T11:59:57.276Z,4.00
2022-08-20T12:02:19.921Z,4.32
2022-08-20T12:04:42.592Z,4.00
2022-08-20T12:07:10.168Z,4.22
2022-08-20T12:09:32.849Z,4.45
2022-08-20T12:11:55.348Z,4.70
2022-08-20T12:14:17.968Z,4.45
2022-08-20T12:16:40.553Z,4.40
2022-08-20T12:19:03.425Z,4.80
2022-08-20T12:21:29.660Z,5.15
2022-08-20T12:23:54.601Z,4.55
2022-08-20T12:26:17.438Z,4.55
2022-08-20T12:28:40.038Z,4.60
2022-08-20T12:31:02.594Z,4.50
2022-08-20T12:33:25.551Z,4.32
2022-08-20T12:35:48.114Z,4.50
2022-08-20T12:38:11.063Z,4.32
2022-08-20T12:40:34.513Z,3.60
2022-08-20T12:42:57.398Z,4.43
2022-08-20T12:45:20.529Z,3.90
2022-08-20T12:47:45.547Z,3.70
2022-08-20T12:52:57.359Z,3.97
2022-08-20T12:55:24.464Z,4.15
2022-08-20T12:57:50.265Z,4.10
2022-08-20T13:00:16.669Z,4.20
2022-08-20T13:02:41.563Z,4.03
2022-08-20T13:05:07.696Z,4.03
2022-08-20T13:07:31.140Z,4.65
2022-08-20T13:09:53.985Z,4.95
2022-08-20T13:12:16.614Z,4.47
2022-08-20T13:14:39.172Z,4.95
2022-08-20T13:17:02.495Z,4.53
2022-08-20T13:19:26.728Z,5.28
2022-08-20T13:21:55.152Z,5.13
2022-08-20T13:24:17.896Z,5.03
2022-08-20T13:26:40.504Z,4.78
2022-08-20T13:29:03.237Z,4.80
2022-08-20T13:31:26.550Z,4.25
2022-08-20T13:33:49.138Z,4.63
2022-08-20T13:36:12.516Z,4.97
2022-08-20T13:38:35.308Z,5.20
2022-08-20T13:40:58.112Z,4.40
2022-08-20T13:43:20.623Z,4.90
2022-08-20T13:45:43.229Z,4.30
2022-08-20T13:48:09.973Z,4.45
2022-08-20T13:50:38.725Z,4.80
2022-08-20T13:53:01.636Z,4.40
2022-08-20T13:55:26.713Z,4.88
2022-08-20T13:57:51.114Z,4.85
2022-08-20T14:00:30.977Z,4.50
2022-08-20T14:02:54.302Z,4.55
2022-08-20T14:05:18.558Z,4.67
2022-08-20T14:07:43.145Z,4.53
2022-08-20T14:10:10.027Z,4.70
2022-08-20T14:12:32.720Z,4.60
2022-08-20T14:14:55.616Z,4.50
2022-08-20T14:17:26.219Z,4.40
2022-08-20T14:19:52.158Z,4.60
2022-08-20T14:22:17.781Z,4.70
2022-08-20T14:24:40.732Z,4.95
2022-08-20T14:27:08.009Z,5.07
2022-08-20T14:29:33.472Z,5.13
2022-08-20T14:31:59.390Z,4.78
2022-08-20T14:34:21.960Z,5.07
2022-08-20T14:36:44.909Z,4.57
2022-08-20T14:39:10.403Z,4.75
2022-08-20T14:41:32.872Z,5.13
2022-08-20T14:43:55.435Z,4.97
2022-08-20T14:46:17.926Z,4.82
2022-08-20T14:48:40.494Z,5.53
2022-08-20T14:51:03.278Z,4.95
2022-08-20T14:53:26.014Z,5.20
2022-08-20T14:55:48.590Z,5.00
2022-08-20T14:58:12.845Z,5.55
2022-08-20T15:00:35.744Z,4.72
2022-08-20T15:02:58.678Z,5.13
2022-08-20T15:05:21.489Z,5.00
2022-08-20T15:07:49.571Z,4.72
2022-08-20T15:10:19.558Z,5.10
2022-08-20T15:12:42.971Z,4.57
2022-08-20T15:15:13.343Z,4.88
2022-08-20T15:17:38.982Z,4.30
2022-08-20T15:20:09.731Z,4.18
2022-08-20T15:22:43.500Z,4.57
2022-08-20T15:25:08.470Z,4.90
2022-08-20T15:27:31.356Z,4.70
2022-08-20T15:29:54.520Z,4.87
2022-08-20T15:32:17.623Z,4.78
2022-08-20T15:34:41.802Z,4.82
2022-08-20T15:37:16.825Z,4.70
2022-08-20T15:39:41.075Z,4.65
2022-08-20T15:42:05.193Z,4.70
2022-08-20T15:44:27.761Z,4.40
2022-08-20T15:46:50.270Z,4.30
2022-08-20T15:49:12.933Z,4.50
2022-08-20T15:51:46.545Z,4.68
2022-08-20T15:54:19.759Z,4.27
2022-08-20T15:57:01.805Z,4.18
2022-08-20T15:59:33.745Z,4.32
2022-08-20T16:02:25.535Z,4.35
2022-08-20T16:04:57.673Z,4.38
2022-08-20T16:07:26.696Z,4.50
2022-08-20T16:10:15.621Z,4.20
2022-08-20T16:12:41.535Z,4.32
2022-08-20T16:15:09.991Z,4.20
2022-08-20T16:17:47.655Z,4.50
2022-08-20T16:20:18.815Z,4.60
2022-08-20T16:22:44.792Z,4.65
2022-08-20T16:25:08.124Z,4.68
2022-08-20T16:27:54.120Z,4.10
2022-08-20T16:30:44.939Z,3.80
2022-08-20T16:33:19.515Z,4.00
2022-08-20T16:36:07.850Z,3.80
2022-08-20T16:38:45.930Z,4.00
2022-08-20T16:41:31.127Z,3.78
2022-08-20T16:44:02.379Z,3.60
2022-08-20T16:46:28.867Z,3.57
2022-08-20T16:48:59.829Z,4.25
2022-08-20T16:51:31.013Z,3.85
2022-08-20T16:53:53.625Z,3.80
2022-08-20T16:56:41.143Z,4.18
2022-08-20T16:59:07.065Z,3.67
2022-08-20T17:01:29.833Z,4.00
2022-08-20T17:03:52.706Z,4.43
2022-08-20T17:06:36.244Z,3.83
2022-08-20T17:09:01.194Z,3.97
2022-08-20T17:11:32.078Z,6.50
2022-08-20T17:14:13.111Z,4.15
2022-08-20T17:16:55.010Z,4.15
2022-08-20T17:19:27.961Z,4.20
2022-08-20T17:21:51.143Z,3.80
2022-08-20T17:24:30.162Z,4.00
2022-08-20T17:27:00.762Z,4.13
2022-08-20T17:29:27.169Z,4.30
2022-08-20T17:31:52.886Z,4.38
2022-08-20T17:34:42.203Z,4.10
2022-08-20T17:37:18.817Z,3.90
2022-08-20T17:39:54.831Z,4.13
2022-08-20T17:42:25.644Z,4.45
2022-08-20T17:44:53.136Z,4.45
2022-08-20T17:47:21.579Z,4.43
2022-08-20T17:50:02.411Z,4.40
2022-08-20T17:52:30.723Z,4.45
2022-08-20T17:54:53.329Z,4.57
2022-08-20T17:57:18.823Z,4.50
2022-08-20T18:00:00.369Z,4.65
2022-08-20T18:02:29.222Z,4.60
2022-08-20T18:04:52.204Z,4.40
2022-08-20T18:07:43.308Z,5.03
2022-08-20T18:10:13.378Z,4.80
2022-08-20T18:12:47.892Z,4.85
2022-08-20T18:15:25.082Z,4.70
2022-08-20T18:17:56.503Z,5.20
2022-08-20T18:20:39.269Z,4.90
2022-08-20T18:23:11.495Z,5.05
2022-08-20T18:26:14.627Z,5.03
2022-08-20T18:28:48.839Z,4.70
2022-08-20T18:31:26.339Z,4.90
2022-08-20T18:33:48.959Z,5.60
2022-08-20T18:36:25.514Z,5.50
2022-08-20T18:39:03.987Z,6.22
2022-08-20T18:41:33.016Z,6.43
2022-08-20T18:44:40.498Z,6.60
2022-08-20T18:47:05.158Z,6.63
2022-08-20T18:49:32.567Z,6.15
2022-08-20T18:51:55.776Z,6.18
2022-08-20T18:54:31.415Z,6.40
2022-08-20T18:57:27.201Z,6.45
2022-08-20T19:00:04.507Z,5.80
2022-08-20T19:02:33.231Z,5.85
2022-08-20T19:05:02.630Z,5.90
2022-08-20T19:07:45.712Z,5.67
2022-08-20T19:10:39.489Z,6.00
2022-08-20T19:13:37.160Z,6.50
2022-08-20T19:16:07.995Z,6.63
2022-08-20T19:18:39.789Z,6.40
2022-08-20T19:21:03.831Z,6.30
2022-08-20T19:23:33.102Z,7.07
2022-08-20T19:26:00.556Z,7.05
2022-08-20T19:29:05.945Z,6.53
2022-08-20T19:31:32.343Z,6.95
2022-08-20T19:34:20.183Z,6.63
2022-08-20T19:36:45.131Z,6.93
2022-08-20T19:39:20.782Z,6.75
2022-08-20T19:42:02.710Z,7.50
2022-08-20T19:44:35.105Z,7.20
2022-08-20T19:46:59.359Z,7.63
2022-08-20T19:49:37.106Z,8.25
2022-08-20T19:52:26.750Z,8.20
2022-08-20T19:54:53.660Z,7.97
2022-08-20T19:57:18.374Z,7.57
2022-08-20T19:59:52.434Z,8.10
2022-08-20T20:02:20.525Z,7.40
2022-08-20T20:04:55.241Z,7.20
2022-08-20T20:07:37.695Z,7.93
2022-08-20T20:10:00.681Z,7.72
2022-08-20T20:12:24.244Z,7.77
2022-08-20T20:14:49.448Z,8.25
2022-08-20T20:17:22.982Z,7.78
2022-08-20T20:19:45.856Z,7.32
2022-08-20T20:22:19.334Z,7.63
2022-08-20T20:24:47.507Z,7.40
2022-08-20T20:27:20.132Z,7.30
2022-08-20T20:29:44.240Z,7.78
2022-08-20T20:32:19.577Z,7.50
2022-08-20T20:34:55.411Z,7.95
2022-08-20T20:37:48.891Z,8.00
2022-08-20T20:40:23.215Z,7.60
2022-08-20T20:43:07.687Z,7.75
2022-08-20T20:46:06.410Z,7.45
2022-08-20T20:48:39.385Z,8.20
2022-08-20T20:51:14.174Z,7.80
2022-08-20T20:53:53.235Z,8.18
2022-08-20T20:56:36.694Z,8.38
2022-08-20T20:59:05.503Z,8.18
2022-08-20T21:01:49.327Z,8.07
2022-08-20T21:04:11.942Z,7.70
2022-08-20T21:06:34.472Z,7.72
2022-08-20T21:08:58.071Z,7.90
2022-08-20T21:11:20.849Z,7.47
2022-08-20T21:13:43.744Z,7.32
2022-08-20T21:16:11.886Z,6.70
2022-08-20T21:18:36.776Z,6.93
2022-08-20T21:20:59.282Z,6.10
2022-08-20T21:23:22.039Z,5.97
2022-08-20T21:26:04.187Z,5.95
2022-08-20T21:28:28.510Z,5.07
2022-08-20T21:30:58.539Z,4.97
2022-08-20T21:33:21.273Z,4.10
2022-08-20T21:35:44.617Z,4.35
2022-08-20T21:38:07.111Z,3.83
2022-08-20T21:40:29.783Z,3.63
2022-08-20T21:42:52.676Z,4.07
2022-08-20T21:45:18.757Z,3.60
2022-08-20T21:47:43.073Z,3.83
2022-08-20T21:50:11.003Z,3.63
2022-08-20T21:52:35.584Z,3.67
2022-08-20T21:54:58.205Z,3.40
2022-08-20T21:57:25.463Z,3.33
2022-08-20T21:59:48.796Z,3.00
2022-08-20T22:02:11.622Z,3.33
2022-08-20T22:04:35.696Z,3.30
2022-08-20T22:06:58.491Z,3.05
2022-08-20T22:09:21.564Z,3.40
2022-08-20T22:11:44.146Z,3.30
2022-08-20T22:14:08.989Z,3.00
2022-08-20T22:16:31.898Z,3.20
2022-08-20T22:18:54.770Z,3.50
2022-08-20T22:21:23.658Z,3.20
2022-08-20T22:23:47.238Z,3.13
2022-08-20T22:26:10.931Z,3.38
2022-08-20T22:28:34.216Z,3.10
2022-08-20T22:30:57.329Z,3.10
2022-08-20T22:33:23.093Z,3.50
2022-08-20T22:35:49.925Z,3.65
2022-08-20T22:38:12.979Z,3.45
2022-08-20T22:40:35.521Z,2.97
2022-08-20T22:42:58.554Z,3.20
2022-08-20T22:45:21.439Z,3.30
2022-08-20T22:47:44.838Z,3.58
2022-08-20T22:50:08.868Z,3.72
2022-08-20T22:52:32.096Z,3.33
2022-08-20T22:54:55.328Z,3.42
2022-08-20T22:57:20.325Z,3.65
2022-08-20T22:59:49.816Z,3.30
2022-08-20T23:02:19.342Z,3.63
2022-08-20T23:04:42.126Z,3.53
2022-08-20T23:07:09.912Z,3.42
2022-08-20T23:09:35.310Z,3.92
2022-08-20T23:11:58.056Z,3.58
2022-08-20T23:14:21.281Z,3.42
2022-08-20T23:16:47.175Z,3.63
2022-08-20T23:19:13.420Z,3.60
2022-08-20T23:21:35.968Z,3.25
2022-08-20T23:23:58.544Z,3.40
2022-08-20T23:26:22.292Z,3.33
2022-08-20T23:28:44.879Z,3.27
2022-08-20T23:31:07.411Z,2.90
2022-08-20T23:33:31.442Z,3.03
2022-08-20T23:35:54.195Z,3.10
2022-08-20T23:38:16.907Z,3.20
2022-08-20T23:40:40.122Z,2.70
2022-08-20T23:43:02.892Z,3.10
2022-08-20T23:45:25.991Z,3.03
2022-08-20T23:47:49.994Z,3.00
2022-08-20T23:50:16.609Z,2.78
2022-08-20T23:52:39.843Z,2.90
2022-08-20T23:55:02.915Z,3.05
2022-08-20T23:57:25.693Z,3.30
2022-08-20T23:59:49.298Z,2.95
